sensor_id;sensor_type;location;lat;lon;timestamp;P1;durP1;ratioP1;P2;durP2;ratioP2
77520;SDS011;66633;47.628;19.158;2023-08-07T00:02:02;2.72;;;0.60;;
77520;SDS011;66633;47.628;19.158;2023-08-07T00:04:28;0.80;;;0.70;;
77520;SDS011;66633;47.628;19.158;2023-08-07T00:06:54;0.60;;;0.60;;
77520;SDS011;66633;47.628;19.158;2023-08-07T00:09:19;1.33;;;0.80;;
77520;SDS011;66633;47.628;19.158;2023-08-07T00:11:44;1.15;;;0.70;;
77520;SDS011;66633;47.628;19.158;2023-08-07T00:14:10;3.00;;;0.70;;
77520;SDS011;66633;47.628;19.158;2023-08-07T00:16:35;0.90;;;0.70;;
77520;SDS011;66633;47.628;19.158;2023-08-07T00:19:01;0.70;;;0.70;;
77520;SDS011;66633;47.628;19.158;2023-08-07T00:21:27;1.02;;;0.70;;
77520;SDS011;66633;47.628;19.158;2023-08-07T00:23:52;1.03;;;0.73;;
77520;SDS011;66633;47.628;19.158;2023-08-07T00:26:19;0.68;;;0.60;;
77520;SDS011;66633;47.628;19.158;2023-08-07T00:28:45;0.70;;;0.70;;
77520;SDS011;66633;47.628;19.158;2023-08-07T00:31:10;1.38;;;0.70;;
77520;SDS011;66633;47.628;19.158;2023-08-07T00:33:35;2.38;;;0.80;;
77520;SDS011;66633;47.628;19.158;2023-08-07T00:36:01;0.70;;;0.70;;
77520;SDS011;66633;47.628;19.158;2023-08-07T00:38:26;3.93;;;0.70;;
77520;SDS011;66633;47.628;19.158;2023-08-07T00:40:51;1.30;;;0.77;;
77520;SDS011;66633;47.628;19.158;2023-08-07T00:43:16;0.55;;;0.55;;
77520;SDS011;66633;47.628;19.158;2023-08-07T00:45:42;0.60;;;0.60;;
77520;SDS011;66633;47.628;19.158;2023-08-07T00:48:08;1.13;;;0.73;;
77520;SDS011;66633;47.628;19.158;2023-08-07T00:50:33;1.02;;;0.70;;
77520;SDS011;66633;47.628;19.158;2023-08-07T00:52:59;0.65;;;0.60;;
77520;SDS011;66633;47.628;19.158;2023-08-07T00:55:24;0.70;;;0.70;;
77520;SDS011;66633;47.628;19.158;2023-08-07T00:57:50;0.90;;;0.68;;
77520;SDS011;66633;47.628;19.158;2023-08-07T01:00:15;1.17;;;0.60;;
77520;SDS011;66633;47.628;19.158;2023-08-07T01:02:41;2.08;;;0.68;;
77520;SDS011;66633;47.628;19.158;2023-08-07T01:05:06;1.42;;;0.70;;
77520;SDS011;66633;47.628;19.158;2023-08-07T01:07:32;0.90;;;0.63;;
77520;SDS011;66633;47.628;19.158;2023-08-07T01:09:57;2.30;;;0.77;;
77520;SDS011;66633;47.628;19.158;2023-08-07T01:12:31;1.10;;;0.70;;
77520;SDS011;66633;47.628;19.158;2023-08-07T01:15:09;3.22;;;0.80;;
77520;SDS011;66633;47.628;19.158;2023-08-07T01:17:37;0.60;;;0.57;;
77520;SDS011;66633;47.628;19.158;2023-08-07T01:20:02;0.90;;;0.68;;
77520;SDS011;66633;47.628;19.158;2023-08-07T01:22:28;1.50;;;0.80;;
77520;SDS011;66633;47.628;19.158;2023-08-07T01:24:53;1.23;;;0.70;;
77520;SDS011;66633;47.628;19.158;2023-08-07T01:32:47;0.70;;;0.70;;
77520;SDS011;66633;47.628;19.158;2023-08-07T01:35:15;1.17;;;0.80;;
77520;SDS011;66633;47.628;19.158;2023-08-07T01:37:41;0.75;;;0.70;;
77520;SDS011;66633;47.628;19.158;2023-08-07T01:40:07;1.67;;;0.80;;
77520;SDS011;66633;47.628;19.158;2023-08-07T01:42:34;0.88;;;0.70;;
77520;SDS011;66633;47.628;19.158;2023-08-07T01:45:00;0.55;;;0.55;;
77520;SDS011;66633;47.628;19.158;2023-08-07T01:47:25;0.70;;;0.70;;
77520;SDS011;66633;47.628;19.158;2023-08-07T01:49:50;1.47;;;0.70;;
77520;SDS011;66633;47.628;19.158;2023-08-07T01:52:15;0.70;;;0.70;;
77520;SDS011;66633;47.628;19.158;2023-08-07T01:54:41;1.47;;;0.73;;
77520;SDS011;66633;47.628;19.158;2023-08-07T01:57:06;1.87;;;0.60;;
77520;SDS011;66633;47.628;19.158;2023-08-07T01:59:31;1.37;;;0.70;;
77520;SDS011;66633;47.628;19.158;2023-08-07T02:01:56;2.10;;;0.60;;
77520;SDS011;66633;47.628;19.158;2023-08-07T02:04:25;1.17;;;0.65;;
77520;SDS011;66633;47.628;19.158;2023-08-07T02:06:50;1.60;;;0.70;;
77520;SDS011;66633;47.628;19.158;2023-08-07T02:09:15;1.80;;;0.83;;
77520;SDS011;66633;47.628;19.158;2023-08-07T02:11:40;0.60;;;0.60;;
77520;SDS011;66633;47.628;19.158;2023-08-07T02:14:06;1.03;;;0.80;;
77520;SDS011;66633;47.628;19.158;2023-08-07T02:16:31;1.80;;;0.70;;
77520;SDS011;66633;47.628;19.158;2023-08-07T02:18:56;1.27;;;0.73;;
77520;SDS011;66633;47.628;19.158;2023-08-07T02:21:21;2.17;;;0.80;;
77520;SDS011;66633;47.628;19.158;2023-08-07T02:23:47;1.27;;;0.70;;
77520;SDS011;66633;47.628;19.158;2023-08-07T02:26:12;0.80;;;0.70;;
77520;SDS011;66633;47.628;19.158;2023-08-07T02:28:37;2.42;;;0.90;;
77520;SDS011;66633;47.628;19.158;2023-08-07T02:31:02;1.60;;;0.60;;
77520;SDS011;66633;47.628;19.158;2023-08-07T02:33:27;0.67;;;0.67;;
77520;SDS011;66633;47.628;19.158;2023-08-07T02:35:55;1.20;;;0.63;;
77520;SDS011;66633;47.628;19.158;2023-08-07T02:38:20;1.85;;;0.60;;
77520;SDS011;66633;47.628;19.158;2023-08-07T02:40:45;0.70;;;0.70;;
77520;SDS011;66633;47.628;19.158;2023-08-07T02:43:11;1.77;;;0.80;;
77520;SDS011;66633;47.628;19.158;2023-08-07T02:45:36;0.73;;;0.60;;
77520;SDS011;66633;47.628;19.158;2023-08-07T02:48:01;0.73;;;0.50;;
77520;SDS011;66633;47.628;19.158;2023-08-07T02:50:27;0.75;;;0.70;;
77520;SDS011;66633;47.628;19.158;2023-08-07T02:52:54;0.80;;;0.70;;
77520;SDS011;66633;47.628;19.158;2023-08-07T02:55:19;1.37;;;0.60;;
77520;SDS011;66633;47.628;19.158;2023-08-07T02:57:45;0.80;;;0.70;;
77520;SDS011;66633;47.628;19.158;2023-08-07T03:00:10;1.43;;;0.73;;
77520;SDS011;66633;47.628;19.158;2023-08-07T03:02:36;0.85;;;0.70;;
77520;SDS011;66633;47.628;19.158;2023-08-07T03:05:01;0.93;;;0.70;;
77520;SDS011;66633;47.628;19.158;2023-08-07T03:07:27;1.52;;;0.80;;
77520;SDS011;66633;47.628;19.158;2023-08-07T03:09:52;4.80;;;0.80;;
77520;SDS011;66633;47.628;19.158;2023-08-07T03:12:17;1.97;;;0.90;;
77520;SDS011;66633;47.628;19.158;2023-08-07T03:14:42;1.23;;;0.70;;
77520;SDS011;66633;47.628;19.158;2023-08-07T03:17:07;1.67;;;0.80;;
77520;SDS011;66633;47.628;19.158;2023-08-07T03:19:33;2.20;;;0.73;;
77520;SDS011;66633;47.628;19.158;2023-08-07T03:21:58;0.90;;;0.60;;
77520;SDS011;66633;47.628;19.158;2023-08-07T03:24:23;2.67;;;0.70;;
77520;SDS011;66633;47.628;19.158;2023-08-07T03:26:48;1.00;;;0.70;;
77520;SDS011;66633;47.628;19.158;2023-08-07T03:29:14;1.08;;;0.68;;
77520;SDS011;66633;47.628;19.158;2023-08-07T03:31:39;1.65;;;0.85;;
77520;SDS011;66633;47.628;19.158;2023-08-07T03:34:04;3.33;;;0.90;;
77520;SDS011;66633;47.628;19.158;2023-08-07T03:36:29;1.83;;;0.70;;
77520;SDS011;66633;47.628;19.158;2023-08-07T03:38:55;1.60;;;0.97;;
77520;SDS011;66633;47.628;19.158;2023-08-07T03:41:20;1.23;;;0.63;;
77520;SDS011;66633;47.628;19.158;2023-08-07T03:43:45;5.30;;;1.00;;
77520;SDS011;66633;47.628;19.158;2023-08-07T03:46:10;1.60;;;0.80;;
77520;SDS011;66633;47.628;19.158;2023-08-07T03:48:36;0.70;;;0.70;;
77520;SDS011;66633;47.628;19.158;2023-08-07T03:51:02;2.20;;;0.90;;
77520;SDS011;66633;47.628;19.158;2023-08-07T03:53:28;3.00;;;0.80;;
77520;SDS011;66633;47.628;19.158;2023-08-07T03:55:53;3.43;;;0.90;;
77520;SDS011;66633;47.628;19.158;2023-08-07T03:58:18;1.33;;;0.90;;
77520;SDS011;66633;47.628;19.158;2023-08-07T04:00:43;2.80;;;0.83;;
77520;SDS011;66633;47.628;19.158;2023-08-07T04:03:09;1.57;;;0.90;;
77520;SDS011;66633;47.628;19.158;2023-08-07T04:05:34;2.47;;;0.90;;
77520;SDS011;66633;47.628;19.158;2023-08-07T04:07:59;2.75;;;0.75;;
77520;SDS011;66633;47.628;19.158;2023-08-07T04:10:24;1.10;;;0.80;;
77520;SDS011;66633;47.628;19.158;2023-08-07T04:12:49;1.93;;;0.90;;
77520;SDS011;66633;47.628;19.158;2023-08-07T04:15:15;2.20;;;0.80;;
77520;SDS011;66633;47.628;19.158;2023-08-07T04:17:40;1.77;;;0.93;;
77520;SDS011;66633;47.628;19.158;2023-08-07T04:20:06;1.58;;;0.90;;
77520;SDS011;66633;47.628;19.158;2023-08-07T04:22:31;3.40;;;1.27;;
77520;SDS011;66633;47.628;19.158;2023-08-07T04:24:57;2.28;;;0.80;;
77520;SDS011;66633;47.628;19.158;2023-08-07T04:27:22;1.95;;;0.93;;
77520;SDS011;66633;47.628;19.158;2023-08-07T04:29:47;1.47;;;1.00;;
77520;SDS011;66633;47.628;19.158;2023-08-07T04:32:12;1.50;;;0.80;;
77520;SDS011;66633;47.628;19.158;2023-08-07T04:34:38;1.93;;;0.90;;
77520;SDS011;66633;47.628;19.158;2023-08-07T04:37:03;1.93;;;1.00;;
77520;SDS011;66633;47.628;19.158;2023-08-07T04:39:28;1.77;;;0.90;;
77520;SDS011;66633;47.628;19.158;2023-08-07T04:41:54;2.33;;;0.75;;
77520;SDS011;66633;47.628;19.158;2023-08-07T04:44:19;1.88;;;1.00;;
77520;SDS011;66633;47.628;19.158;2023-08-07T04:46:44;1.23;;;0.80;;
77520;SDS011;66633;47.628;19.158;2023-08-07T04:49:09;3.17;;;1.00;;
77520;SDS011;66633;47.628;19.158;2023-08-07T04:51:35;3.50;;;1.10;;
77520;SDS011;66633;47.628;19.158;2023-08-07T04:54:00;1.50;;;0.80;;
77520;SDS011;66633;47.628;19.158;2023-08-07T04:56:25;2.92;;;0.98;;
77520;SDS011;66633;47.628;19.158;2023-08-07T04:58:51;2.10;;;1.00;;
77520;SDS011;66633;47.628;19.158;2023-08-07T05:01:16;3.53;;;1.00;;
77520;SDS011;66633;47.628;19.158;2023-08-07T05:03:41;2.15;;;0.90;;
77520;SDS011;66633;47.628;19.158;2023-08-07T05:06:06;3.30;;;1.10;;
77520;SDS011;66633;47.628;19.158;2023-08-07T05:08:32;1.00;;;0.80;;
77520;SDS011;66633;47.628;19.158;2023-08-07T05:10:57;2.27;;;1.10;;
77520;SDS011;66633;47.628;19.158;2023-08-07T05:13:22;3.27;;;0.90;;
77520;SDS011;66633;47.628;19.158;2023-08-07T05:15:47;1.23;;;0.90;;
77520;SDS011;66633;47.628;19.158;2023-08-07T05:18:13;2.20;;;0.98;;
77520;SDS011;66633;47.628;19.158;2023-08-07T05:20:39;4.07;;;1.10;;
77520;SDS011;66633;47.628;19.158;2023-08-07T05:23:05;3.17;;;1.10;;
77520;SDS011;66633;47.628;19.158;2023-08-07T05:25:30;3.15;;;1.17;;
77520;SDS011;66633;47.628;19.158;2023-08-07T05:27:56;2.43;;;1.23;;
77520;SDS011;66633;47.628;19.158;2023-08-07T05:30:21;2.42;;;0.93;;
77520;SDS011;66633;47.628;19.158;2023-08-07T05:32:47;1.90;;;1.00;;
77520;SDS011;66633;47.628;19.158;2023-08-07T05:35:12;2.38;;;1.00;;
77520;SDS011;66633;47.628;19.158;2023-08-07T05:37:37;3.30;;;1.20;;
77520;SDS011;66633;47.628;19.158;2023-08-07T05:40:03;2.95;;;1.05;;
77520;SDS011;66633;47.628;19.158;2023-08-07T05:42:29;3.08;;;1.10;;
77520;SDS011;66633;47.628;19.158;2023-08-07T05:44:54;3.63;;;1.15;;
77520;SDS011;66633;47.628;19.158;2023-08-07T05:47:20;2.67;;;1.20;;
77520;SDS011;66633;47.628;19.158;2023-08-07T05:49:45;2.33;;;1.00;;
77520;SDS011;66633;47.628;19.158;2023-08-07T05:52:10;1.65;;;1.00;;
77520;SDS011;66633;47.628;19.158;2023-08-07T05:54:35;3.67;;;1.10;;
77520;SDS011;66633;47.628;19.158;2023-08-07T05:57:01;2.45;;;1.20;;
77520;SDS011;66633;47.628;19.158;2023-08-07T05:59:26;5.00;;;1.23;;
77520;SDS011;66633;47.628;19.158;2023-08-07T06:01:52;2.15;;;1.20;;
77520;SDS011;66633;47.628;19.158;2023-08-07T06:04:18;3.65;;;1.40;;
77520;SDS011;66633;47.628;19.158;2023-08-07T06:06:43;2.20;;;1.00;;
77520;SDS011;66633;47.628;19.158;2023-08-07T06:09:09;2.33;;;1.05;;
77520;SDS011;66633;47.628;19.158;2023-08-07T06:11:35;2.88;;;1.20;;
77520;SDS011;66633;47.628;19.158;2023-08-07T06:14:00;3.00;;;1.30;;
77520;SDS011;66633;47.628;19.158;2023-08-07T06:16:26;3.67;;;1.10;;
77520;SDS011;66633;47.628;19.158;2023-08-07T06:18:52;3.17;;;1.10;;
77520;SDS011;66633;47.628;19.158;2023-08-07T06:21:18;3.33;;;1.27;;
77520;SDS011;66633;47.628;19.158;2023-08-07T06:23:45;3.20;;;1.20;;
77520;SDS011;66633;47.628;19.158;2023-08-07T06:26:10;3.05;;;1.10;;
77520;SDS011;66633;47.628;19.158;2023-08-07T06:28:36;2.33;;;0.95;;
77520;SDS011;66633;47.628;19.158;2023-08-07T06:31:05;4.68;;;1.23;;
77520;SDS011;66633;47.628;19.158;2023-08-07T06:33:31;4.22;;;1.30;;
77520;SDS011;66633;47.628;19.158;2023-08-07T06:35:57;4.10;;;1.33;;
77520;SDS011;66633;47.628;19.158;2023-08-07T06:38:22;2.40;;;1.00;;
77520;SDS011;66633;47.628;19.158;2023-08-07T06:40:47;1.98;;;0.90;;
77520;SDS011;66633;47.628;19.158;2023-08-07T06:43:13;2.40;;;1.10;;
77520;SDS011;66633;47.628;19.158;2023-08-07T06:45:39;2.87;;;1.07;;
77520;SDS011;66633;47.628;19.158;2023-08-07T06:48:04;2.42;;;1.27;;
77520;SDS011;66633;47.628;19.158;2023-08-07T06:50:30;2.83;;;1.10;;
77520;SDS011;66633;47.628;19.158;2023-08-07T06:52:55;1.80;;;1.00;;
77520;SDS011;66633;47.628;19.158;2023-08-07T06:55:21;5.22;;;1.15;;
77520;SDS011;66633;47.628;19.158;2023-08-07T06:57:47;3.17;;;1.30;;
77520;SDS011;66633;47.628;19.158;2023-08-07T07:00:12;3.30;;;1.13;;
77520;SDS011;66633;47.628;19.158;2023-08-07T07:02:37;2.83;;;1.20;;
77520;SDS011;66633;47.628;19.158;2023-08-07T07:05:03;1.53;;;1.00;;
77520;SDS011;66633;47.628;19.158;2023-08-07T07:07:30;1.95;;;1.00;;
77520;SDS011;66633;47.628;19.158;2023-08-07T07:09:56;5.00;;;1.15;;
77520;SDS011;66633;47.628;19.158;2023-08-07T07:12:25;3.08;;;0.90;;
77520;SDS011;66633;47.628;19.158;2023-08-07T07:14:53;2.53;;;1.20;;
77520;SDS011;66633;47.628;19.158;2023-08-07T07:17:19;3.35;;;1.10;;
77520;SDS011;66633;47.628;19.158;2023-08-07T07:19:44;2.28;;;1.10;;
77520;SDS011;66633;47.628;19.158;2023-08-07T07:22:10;1.95;;;1.00;;
77520;SDS011;66633;47.628;19.158;2023-08-07T07:24:36;1.55;;;0.90;;
77520;SDS011;66633;47.628;19.158;2023-08-07T07:27:01;2.60;;;0.93;;
77520;SDS011;66633;47.628;19.158;2023-08-07T07:29:28;1.77;;;0.80;;
77520;SDS011;66633;47.628;19.158;2023-08-07T07:31:54;1.80;;;0.95;;
77520;SDS011;66633;47.628;19.158;2023-08-07T07:34:21;1.17;;;0.90;;
77520;SDS011;66633;47.628;19.158;2023-08-07T07:36:47;1.98;;;0.80;;
77520;SDS011;66633;47.628;19.158;2023-08-07T07:39:14;0.75;;;0.75;;
77520;SDS011;66633;47.628;19.158;2023-08-07T07:41:40;0.80;;;0.80;;
77520;SDS011;66633;47.628;19.158;2023-08-07T07:44:06;1.60;;;0.80;;
77520;SDS011;66633;47.628;19.158;2023-08-07T07:46:35;2.00;;;1.10;;
77520;SDS011;66633;47.628;19.158;2023-08-07T07:49:00;1.52;;;0.90;;
77520;SDS011;66633;47.628;19.158;2023-08-07T07:51:28;1.60;;;0.82;;
77520;SDS011;66633;47.628;19.158;2023-08-07T07:53:54;1.27;;;0.75;;
77520;SDS011;66633;47.628;19.158;2023-08-07T07:56:20;2.97;;;0.80;;
77520;SDS011;66633;47.628;19.158;2023-08-07T07:58:45;1.40;;;0.75;;
77520;SDS011;66633;47.628;19.158;2023-08-07T08:01:13;1.05;;;0.82;;
77520;SDS011;66633;47.628;19.158;2023-08-07T08:03:39;1.23;;;0.82;;
77520;SDS011;66633;47.628;19.158;2023-08-07T08:06:11;1.88;;;0.85;;
77520;SDS011;66633;47.628;19.158;2023-08-07T08:08:37;1.90;;;0.88;;
77520;SDS011;66633;47.628;19.158;2023-08-07T08:11:03;1.35;;;0.80;;
77520;SDS011;66633;47.628;19.158;2023-08-07T08:13:28;1.40;;;0.90;;
77520;SDS011;66633;47.628;19.158;2023-08-07T08:15:55;1.45;;;0.70;;
77520;SDS011;66633;47.628;19.158;2023-08-07T08:18:22;1.42;;;1.00;;
77520;SDS011;66633;47.628;19.158;2023-08-07T08:20:47;1.30;;;0.90;;
77520;SDS011;66633;47.628;19.158;2023-08-07T08:23:12;1.10;;;0.80;;
77520;SDS011;66633;47.628;19.158;2023-08-07T08:25:38;0.77;;;0.60;;
77520;SDS011;66633;47.628;19.158;2023-08-07T08:28:03;0.95;;;0.80;;
77520;SDS011;66633;47.628;19.158;2023-08-07T08:30:31;2.05;;;1.00;;
77520;SDS011;66633;47.628;19.158;2023-08-07T08:32:57;1.30;;;0.90;;
77520;SDS011;66633;47.628;19.158;2023-08-07T08:35:22;1.37;;;0.80;;
77520;SDS011;66633;47.628;19.158;2023-08-07T08:37:47;0.85;;;0.80;;
77520;SDS011;66633;47.628;19.158;2023-08-07T08:40:13;1.13;;;0.70;;
77520;SDS011;66633;47.628;19.158;2023-08-07T08:42:42;1.17;;;0.70;;
77520;SDS011;66633;47.628;19.158;2023-08-07T08:45:08;1.60;;;0.85;;
77520;SDS011;66633;47.628;19.158;2023-08-07T08:47:35;2.70;;;0.70;;
77520;SDS011;66633;47.628;19.158;2023-08-07T08:50:03;1.30;;;0.70;;
77520;SDS011;66633;47.628;19.158;2023-08-07T08:52:30;0.85;;;0.73;;
77520;SDS011;66633;47.628;19.158;2023-08-07T08:54:56;1.08;;;0.82;;
77520;SDS011;66633;47.628;19.158;2023-08-07T08:57:22;2.40;;;1.02;;
77520;SDS011;66633;47.628;19.158;2023-08-07T08:59:47;0.90;;;0.77;;
77520;SDS011;66633;47.628;19.158;2023-08-07T09:02:13;0.95;;;0.63;;
77520;SDS011;66633;47.628;19.158;2023-08-07T09:04:38;3.08;;;0.70;;
77520;SDS011;66633;47.628;19.158;2023-08-07T09:07:04;0.80;;;0.80;;
77520;SDS011;66633;47.628;19.158;2023-08-07T09:09:29;1.75;;;0.70;;
77520;SDS011;66633;47.628;19.158;2023-08-07T09:11:55;1.27;;;0.82;;
77520;SDS011;66633;47.628;19.158;2023-08-07T09:14:24;1.52;;;0.90;;
77520;SDS011;66633;47.628;19.158;2023-08-07T09:16:49;0.93;;;0.80;;
77520;SDS011;66633;47.628;19.158;2023-08-07T09:19:15;1.20;;;0.70;;
77520;SDS011;66633;47.628;19.158;2023-08-07T09:21:40;1.27;;;0.80;;
77520;SDS011;66633;47.628;19.158;2023-08-07T09:24:06;1.23;;;0.80;;
77520;SDS011;66633;47.628;19.158;2023-08-07T09:26:34;1.07;;;0.80;;
77520;SDS011;66633;47.628;19.158;2023-08-07T09:28:59;1.65;;;0.88;;
77520;SDS011;66633;47.628;19.158;2023-08-07T09:31:24;1.52;;;0.70;;
77520;SDS011;66633;47.628;19.158;2023-08-07T09:33:54;0.60;;;0.60;;
77520;SDS011;66633;47.628;19.158;2023-08-07T09:36:19;2.00;;;0.95;;
77520;SDS011;66633;47.628;19.158;2023-08-07T09:38:52;1.90;;;0.73;;
77520;SDS011;66633;47.628;19.158;2023-08-07T09:41:17;1.80;;;0.75;;
77520;SDS011;66633;47.628;19.158;2023-08-07T09:43:42;2.25;;;0.80;;
77520;SDS011;66633;47.628;19.158;2023-08-07T09:46:08;14.00;;;1.10;;
77520;SDS011;66633;47.628;19.158;2023-08-07T09:48:43;0.93;;;0.70;;
77520;SDS011;66633;47.628;19.158;2023-08-07T09:51:08;0.70;;;0.70;;
77520;SDS011;66633;47.628;19.158;2023-08-07T09:53:34;1.60;;;0.90;;
77520;SDS011;66633;47.628;19.158;2023-08-07T09:56:00;3.15;;;0.80;;
77520;SDS011;66633;47.628;19.158;2023-08-07T09:58:26;1.15;;;0.70;;
77520;SDS011;66633;47.628;19.158;2023-08-07T10:00:51;1.00;;;0.90;;
77520;SDS011;66633;47.628;19.158;2023-08-07T10:03:21;0.73;;;0.73;;
77520;SDS011;66633;47.628;19.158;2023-08-07T10:05:47;1.05;;;0.73;;
77520;SDS011;66633;47.628;19.158;2023-08-07T10:08:12;0.98;;;0.80;;
77520;SDS011;66633;47.628;19.158;2023-08-07T10:10:37;0.80;;;0.80;;
77520;SDS011;66633;47.628;19.158;2023-08-07T10:13:03;2.92;;;0.90;;
77520;SDS011;66633;47.628;19.158;2023-08-07T10:15:29;1.10;;;0.70;;
77520;SDS011;66633;47.628;19.158;2023-08-07T10:17:56;1.50;;;0.70;;
77520;SDS011;66633;47.628;19.158;2023-08-07T10:20:21;1.35;;;0.73;;
77520;SDS011;66633;47.628;19.158;2023-08-07T10:22:46;0.80;;;0.50;;
77520;SDS011;66633;47.628;19.158;2023-08-07T10:25:12;1.85;;;0.70;;
77520;SDS011;66633;47.628;19.158;2023-08-07T10:27:38;0.77;;;0.60;;
77520;SDS011;66633;47.628;19.158;2023-08-07T10:30:06;1.80;;;0.60;;
77520;SDS011;66633;47.628;19.158;2023-08-07T10:32:32;0.75;;;0.75;;
77520;SDS011;66633;47.628;19.158;2023-08-07T10:34:58;0.68;;;0.68;;
77520;SDS011;66633;47.628;19.158;2023-08-07T10:37:42;1.15;;;0.65;;
77520;SDS011;66633;47.628;19.158;2023-08-07T10:40:08;1.27;;;0.75;;
77520;SDS011;66633;47.628;19.158;2023-08-07T10:45:22;2.47;;;0.73;;
77520;SDS011;66633;47.628;19.158;2023-08-07T10:48:00;1.55;;;0.70;;
77520;SDS011;66633;47.628;19.158;2023-08-07T10:50:30;1.08;;;0.80;;
77520;SDS011;66633;47.628;19.158;2023-08-07T10:55:21;0.68;;;0.68;;
77520;SDS011;66633;47.628;19.158;2023-08-07T10:57:48;2.28;;;0.70;;
77520;SDS011;66633;47.628;19.158;2023-08-07T11:00:14;0.63;;;0.63;;
77520;SDS011;66633;47.628;19.158;2023-08-07T11:02:41;0.70;;;0.70;;
77520;SDS011;66633;47.628;19.158;2023-08-07T11:05:06;1.65;;;0.70;;
77520;SDS011;66633;47.628;19.158;2023-08-07T11:07:32;0.63;;;0.63;;
77520;SDS011;66633;47.628;19.158;2023-08-07T11:09:57;0.70;;;0.70;;
77520;SDS011;66633;47.628;19.158;2023-08-07T11:12:27;1.75;;;0.90;;
77520;SDS011;66633;47.628;19.158;2023-08-07T11:14:52;0.70;;;0.70;;
77520;SDS011;66633;47.628;19.158;2023-08-07T11:17:18;0.60;;;0.60;;
77520;SDS011;66633;47.628;19.158;2023-08-07T11:19:43;0.80;;;0.80;;
77520;SDS011;66633;47.628;19.158;2023-08-07T11:22:08;1.38;;;0.70;;
77520;SDS011;66633;47.628;19.158;2023-08-07T11:24:34;1.17;;;0.80;;
77520;SDS011;66633;47.628;19.158;2023-08-07T11:26:59;1.48;;;0.70;;
77520;SDS011;66633;47.628;19.158;2023-08-07T11:29:24;0.70;;;0.67;;
77520;SDS011;66633;47.628;19.158;2023-08-07T11:31:53;0.85;;;0.65;;
77520;SDS011;66633;47.628;19.158;2023-08-07T11:34:18;1.05;;;0.70;;
77520;SDS011;66633;47.628;19.158;2023-08-07T11:36:44;1.75;;;0.80;;
77520;SDS011;66633;47.628;19.158;2023-08-07T11:39:10;1.00;;;0.90;;
77520;SDS011;66633;47.628;19.158;2023-08-07T11:41:36;0.70;;;0.70;;
77520;SDS011;66633;47.628;19.158;2023-08-07T11:44:01;1.58;;;0.88;;
77520;SDS011;66633;47.628;19.158;2023-08-07T11:46:26;1.05;;;0.60;;
77520;SDS011;66633;47.628;19.158;2023-08-07T11:48:52;1.58;;;0.80;;
77520;SDS011;66633;47.628;19.158;2023-08-07T11:51:19;3.28;;;0.90;;
77520;SDS011;66633;47.628;19.158;2023-08-07T11:53:45;1.27;;;0.90;;
77520;SDS011;66633;47.628;19.158;2023-08-07T11:56:11;1.33;;;0.80;;
77520;SDS011;66633;47.628;19.158;2023-08-07T12:01:08;1.15;;;0.82;;
77520;SDS011;66633;47.628;19.158;2023-08-07T12:03:35;0.70;;;0.70;;
77520;SDS011;66633;47.628;19.158;2023-08-07T12:06:04;1.20;;;0.88;;
77520;SDS011;66633;47.628;19.158;2023-08-07T12:08:48;2.42;;;0.70;;
77520;SDS011;66633;47.628;19.158;2023-08-07T12:11:14;1.02;;;0.80;;
77520;SDS011;66633;47.628;19.158;2023-08-07T12:13:42;1.52;;;0.90;;
77520;SDS011;66633;47.628;19.158;2023-08-07T12:16:07;1.70;;;0.70;;
77520;SDS011;66633;47.628;19.158;2023-08-07T12:18:33;1.27;;;0.90;;
77520;SDS011;66633;47.628;19.158;2023-08-07T12:21:01;2.28;;;0.98;;
77520;SDS011;66633;47.628;19.158;2023-08-07T12:23:26;1.98;;;0.90;;
77520;SDS011;66633;47.628;19.158;2023-08-07T12:25:52;2.35;;;0.80;;
77520;SDS011;66633;47.628;19.158;2023-08-07T12:28:20;2.08;;;0.98;;
77520;SDS011;66633;47.628;19.158;2023-08-07T12:30:46;0.90;;;0.82;;
77520;SDS011;66633;47.628;19.158;2023-08-07T12:33:12;1.40;;;0.95;;
77520;SDS011;66633;47.628;19.158;2023-08-07T12:35:37;1.13;;;0.75;;
77520;SDS011;66633;47.628;19.158;2023-08-07T12:38:03;3.58;;;0.80;;
77520;SDS011;66633;47.628;19.158;2023-08-07T12:40:31;1.02;;;0.93;;
77520;SDS011;66633;47.628;19.158;2023-08-07T12:42:56;2.90;;;1.20;;
77520;SDS011;66633;47.628;19.158;2023-08-07T12:45:22;1.60;;;0.95;;
77520;SDS011;66633;47.628;19.158;2023-08-07T12:47:47;1.00;;;0.88;;
77520;SDS011;66633;47.628;19.158;2023-08-07T12:50:12;2.13;;;0.97;;
77520;SDS011;66633;47.628;19.158;2023-08-07T12:52:38;2.33;;;0.95;;
77520;SDS011;66633;47.628;19.158;2023-08-07T12:55:03;2.43;;;0.73;;
77520;SDS011;66633;47.628;19.158;2023-08-07T12:57:29;2.90;;;1.02;;
77520;SDS011;66633;47.628;19.158;2023-08-07T12:59:54;2.92;;;1.00;;
77520;SDS011;66633;47.628;19.158;2023-08-07T13:02:19;4.32;;;1.10;;
77520;SDS011;66633;47.628;19.158;2023-08-07T13:04:45;2.00;;;1.00;;
77520;SDS011;66633;47.628;19.158;2023-08-07T13:07:11;1.55;;;0.90;;
77520;SDS011;66633;47.628;19.158;2023-08-07T13:09:36;1.88;;;0.90;;
77520;SDS011;66633;47.628;19.158;2023-08-07T13:12:02;2.47;;;1.00;;
77520;SDS011;66633;47.628;19.158;2023-08-07T13:14:27;1.38;;;1.00;;
77520;SDS011;66633;47.628;19.158;2023-08-07T13:16:52;2.25;;;0.90;;
77520;SDS011;66633;47.628;19.158;2023-08-07T13:19:18;2.20;;;1.00;;
77520;SDS011;66633;47.628;19.158;2023-08-07T13:21:43;1.33;;;0.95;;
77520;SDS011;66633;47.628;19.158;2023-08-07T13:24:09;1.00;;;0.90;;
77520;SDS011;66633;47.628;19.158;2023-08-07T13:26:34;2.80;;;1.02;;
77520;SDS011;66633;47.628;19.158;2023-08-07T13:28:59;2.08;;;1.10;;
77520;SDS011;66633;47.628;19.158;2023-08-07T13:31:27;1.30;;;1.00;;
77520;SDS011;66633;47.628;19.158;2023-08-07T13:33:53;1.52;;;0.98;;
77520;SDS011;66633;47.628;19.158;2023-08-07T13:36:18;0.83;;;0.80;;
77520;SDS011;66633;47.628;19.158;2023-08-07T13:38:43;1.67;;;0.90;;
77520;SDS011;66633;47.628;19.158;2023-08-07T13:41:09;2.15;;;1.00;;
77520;SDS011;66633;47.628;19.158;2023-08-07T13:43:34;3.27;;;1.00;;
77520;SDS011;66633;47.628;19.158;2023-08-07T13:45:59;2.35;;;1.10;;
77520;SDS011;66633;47.628;19.158;2023-08-07T13:48:25;1.17;;;0.80;;
77520;SDS011;66633;47.628;19.158;2023-08-07T13:50:53;2.15;;;1.10;;
77520;SDS011;66633;47.628;19.158;2023-08-07T13:53:19;1.48;;;0.90;;
77520;SDS011;66633;47.628;19.158;2023-08-07T13:55:46;0.93;;;0.80;;
77520;SDS011;66633;47.628;19.158;2023-08-07T13:58:12;1.48;;;0.95;;
77520;SDS011;66633;47.628;19.158;2023-08-07T14:00:40;2.58;;;1.00;;
77520;SDS011;66633;47.628;19.158;2023-08-07T14:03:05;1.33;;;0.88;;
77520;SDS011;66633;47.628;19.158;2023-08-07T14:05:31;1.60;;;0.95;;
77520;SDS011;66633;47.628;19.158;2023-08-07T14:07:56;2.58;;;1.20;;
77520;SDS011;66633;47.628;19.158;2023-08-07T14:10:23;1.70;;;1.00;;
77520;SDS011;66633;47.628;19.158;2023-08-07T14:12:48;1.95;;;1.00;;
77520;SDS011;66633;47.628;19.158;2023-08-07T14:15:14;1.35;;;0.90;;
77520;SDS011;66633;47.628;19.158;2023-08-07T14:17:39;1.97;;;1.00;;
77520;SDS011;66633;47.628;19.158;2023-08-07T14:20:05;1.25;;;1.00;;
77520;SDS011;66633;47.628;19.158;2023-08-07T14:22:30;1.85;;;1.17;;
77520;SDS011;66633;47.628;19.158;2023-08-07T14:24:57;3.55;;;1.02;;
77520;SDS011;66633;47.628;19.158;2023-08-07T14:27:22;1.47;;;1.00;;
77520;SDS011;66633;47.628;19.158;2023-08-07T14:29:47;1.47;;;0.90;;
77520;SDS011;66633;47.628;19.158;2023-08-07T14:32:12;2.95;;;1.10;;
77520;SDS011;66633;47.628;19.158;2023-08-07T14:34:38;2.30;;;1.20;;
77520;SDS011;66633;47.628;19.158;2023-08-07T14:37:03;2.08;;;0.98;;
77520;SDS011;66633;47.628;19.158;2023-08-07T14:39:29;2.72;;;1.10;;